sensor_id;sensor_type;location;lat;lon;timestamp;P1;durP1;ratioP1;P2;durP2;ratioP2
29538;SDS011;16482;51.046;4.498;2022-10-28T00:01:00;6.70;;;5.15;;
29538;SDS011;16482;51.046;4.498;2022-10-28T00:03:27;6.55;;;4.80;;
29538;SDS011;16482;51.046;4.498;2022-10-28T00:05:53;7.20;;;5.20;;
29538;SDS011;16482;51.046;4.498;2022-10-28T00:08:28;6.18;;;4.85;;
29538;SDS011;16482;51.046;4.498;2022-10-28T00:11:00;7.53;;;5.15;;
29538;SDS011;16482;51.046;4.498;2022-10-28T00:18:28;8.65;;;5.53;;
29538;SDS011;16482;51.046;4.498;2022-10-28T00:20:58;7.22;;;5.47;;
29538;SDS011;16482;51.046;4.498;2022-10-28T00:23:28;7.18;;;4.90;;
29538;SDS011;16482;51.046;4.498;2022-10-28T00:25:54;8.07;;;5.30;;
29538;SDS011;16482;51.046;4.498;2022-10-28T00:28:28;7.03;;;5.30;;
29538;SDS011;16482;51.046;4.498;2022-10-28T00:30:54;8.57;;;5.38;;
29538;SDS011;16482;51.046;4.498;2022-10-28T00:33:19;7.82;;;5.03;;
29538;SDS011;16482;51.046;4.498;2022-10-28T00:35:45;7.47;;;4.93;;
29538;SDS011;16482;51.046;4.498;2022-10-28T00:38:11;6.65;;;5.03;;
29538;SDS011;16482;51.046;4.498;2022-10-28T00:40:37;7.20;;;4.80;;
29538;SDS011;16482;51.046;4.498;2022-10-28T00:43:03;5.82;;;4.47;;
29538;SDS011;16482;51.046;4.498;2022-10-28T00:45:29;8.18;;;5.30;;
29538;SDS011;16482;51.046;4.498;2022-10-28T00:47:56;7.50;;;5.35;;
29538;SDS011;16482;51.046;4.498;2022-10-28T00:50:28;6.72;;;4.75;;
29538;SDS011;16482;51.046;4.498;2022-10-28T00:53:05;8.90;;;5.55;;
29538;SDS011;16482;51.046;4.498;2022-10-28T00:55:59;7.13;;;4.93;;
29538;SDS011;16482;51.046;4.498;2022-10-28T00:58:27;7.25;;;5.22;;
29538;SDS011;16482;51.046;4.498;2022-10-28T01:00:54;7.05;;;4.95;;
29538;SDS011;16482;51.046;4.498;2022-10-28T01:03:22;8.32;;;5.18;;
29538;SDS011;16482;51.046;4.498;2022-10-28T01:05:48;8.65;;;5.05;;
29538;SDS011;16482;51.046;4.498;2022-10-28T01:08:16;7.78;;;4.68;;
29538;SDS011;16482;51.046;4.498;2022-10-28T01:35:48;7.78;;;5.18;;
29538;SDS011;16482;51.046;4.498;2022-10-28T01:43:27;8.30;;;4.93;;
29538;SDS011;16482;51.046;4.498;2022-10-28T01:45:59;6.75;;;4.85;;
29538;SDS011;16482;51.046;4.498;2022-10-28T01:48:39;8.48;;;5.13;;
29538;SDS011;16482;51.046;4.498;2022-10-28T01:51:22;7.80;;;4.90;;
29538;SDS011;16482;51.046;4.498;2022-10-28T01:53:55;7.47;;;4.95;;
29538;SDS011;16482;51.046;4.498;2022-10-28T01:56:25;6.75;;;4.78;;
29538;SDS011;16482;51.046;4.498;2022-10-28T01:58:55;7.25;;;5.00;;
29538;SDS011;16482;51.046;4.498;2022-10-28T02:01:24;6.07;;;4.50;;
29538;SDS011;16482;51.046;4.498;2022-10-28T02:03:52;8.13;;;5.22;;
29538;SDS011;16482;51.046;4.498;2022-10-28T02:06:20;6.53;;;4.50;;
29538;SDS011;16482;51.046;4.498;2022-10-28T02:08:58;7.40;;;4.90;;
29538;SDS011;16482;51.046;4.498;2022-10-28T02:11:44;6.70;;;4.72;;
29538;SDS011;16482;51.046;4.498;2022-10-28T02:17:42;6.47;;;5.07;;
29538;SDS011;16482;51.046;4.498;2022-10-28T02:20:15;5.60;;;4.70;;
29538;SDS011;16482;51.046;4.498;2022-10-28T02:22:59;7.32;;;5.00;;
29538;SDS011;16482;51.046;4.498;2022-10-28T02:25:40;6.18;;;4.63;;
29538;SDS011;16482;51.046;4.498;2022-10-28T02:28:22;8.38;;;5.35;;
29538;SDS011;16482;51.046;4.498;2022-10-28T02:31:00;9.20;;;4.70;;
29538;SDS011;16482;51.046;4.498;2022-10-28T02:33:52;7.03;;;4.90;;
29538;SDS011;16482;51.046;4.498;2022-10-28T02:36:21;5.60;;;4.20;;
29538;SDS011;16482;51.046;4.498;2022-10-28T02:38:51;6.40;;;4.18;;
29538;SDS011;16482;51.046;4.498;2022-10-28T02:41:23;6.72;;;4.70;;
29538;SDS011;16482;51.046;4.498;2022-10-28T02:44:11;8.85;;;4.93;;
29538;SDS011;16482;51.046;4.498;2022-10-28T02:46:40;8.18;;;5.20;;
29538;SDS011;16482;51.046;4.498;2022-10-28T02:49:09;6.57;;;4.70;;
29538;SDS011;16482;51.046;4.498;2022-10-28T02:51:39;8.10;;;5.18;;
29538;SDS011;16482;51.046;4.498;2022-10-28T02:56:41;4.82;;;4.07;;
29538;SDS011;16482;51.046;4.498;2022-10-28T02:59:15;5.90;;;4.13;;
29538;SDS011;16482;51.046;4.498;2022-10-28T03:01:40;7.05;;;4.47;;
29538;SDS011;16482;51.046;4.498;2022-10-28T03:04:06;6.90;;;4.85;;
29538;SDS011;16482;51.046;4.498;2022-10-28T03:06:32;8.00;;;4.72;;
29538;SDS011;16482;51.046;4.498;2022-10-28T03:08:58;7.82;;;4.65;;
29538;SDS011;16482;51.046;4.498;2022-10-28T03:11:24;8.30;;;5.10;;
29538;SDS011;16482;51.046;4.498;2022-10-28T03:13:50;6.45;;;4.28;;
29538;SDS011;16482;51.046;4.498;2022-10-28T03:16:16;8.63;;;4.57;;
29538;SDS011;16482;51.046;4.498;2022-10-28T03:18:42;8.95;;;4.78;;
29538;SDS011;16482;51.046;4.498;2022-10-28T03:21:08;6.68;;;4.57;;
29538;SDS011;16482;51.046;4.498;2022-10-28T03:23:33;6.05;;;4.35;;
29538;SDS011;16482;51.046;4.498;2022-10-28T03:25:59;6.35;;;4.40;;
29538;SDS011;16482;51.046;4.498;2022-10-28T03:28:27;6.53;;;4.20;;
29538;SDS011;16482;51.046;4.498;2022-10-28T03:30:56;7.47;;;5.22;;
29538;SDS011;16482;51.046;4.498;2022-10-28T03:33:27;8.95;;;4.80;;
29538;SDS011;16482;51.046;4.498;2022-10-28T03:35:55;6.05;;;4.65;;
29538;SDS011;16482;51.046;4.498;2022-10-28T03:38:21;6.32;;;4.60;;
29538;SDS011;16482;51.046;4.498;2022-10-28T03:40:47;7.22;;;4.75;;
29538;SDS011;16482;51.046;4.498;2022-10-28T03:43:13;7.15;;;4.40;;
29538;SDS011;16482;51.046;4.498;2022-10-28T03:45:40;6.55;;;4.25;;
29538;SDS011;16482;51.046;4.498;2022-10-28T03:48:05;9.02;;;4.43;;
29538;SDS011;16482;51.046;4.498;2022-10-28T03:50:31;7.30;;;5.18;;
29538;SDS011;16482;51.046;4.498;2022-10-28T03:52:57;6.35;;;4.28;;
29538;SDS011;16482;51.046;4.498;2022-10-28T03:55:23;8.27;;;4.70;;
29538;SDS011;16482;51.046;4.498;2022-10-28T03:57:50;8.43;;;4.47;;
29538;SDS011;16482;51.046;4.498;2022-10-28T04:00:16;7.65;;;4.50;;
29538;SDS011;16482;51.046;4.498;2022-10-28T04:02:44;5.80;;;4.18;;
29538;SDS011;16482;51.046;4.498;2022-10-28T04:05:14;6.40;;;4.45;;
29538;SDS011;16482;51.046;4.498;2022-10-28T04:07:39;7.80;;;4.53;;
29538;SDS011;16482;51.046;4.498;2022-10-28T04:10:05;8.30;;;5.20;;
29538;SDS011;16482;51.046;4.498;2022-10-28T04:12:31;6.03;;;4.80;;
29538;SDS011;16482;51.046;4.498;2022-10-28T04:14:57;7.63;;;4.18;;
29538;SDS011;16482;51.046;4.498;2022-10-28T04:17:23;7.82;;;5.35;;
29538;SDS011;16482;51.046;4.498;2022-10-28T04:19:49;4.95;;;4.45;;
29538;SDS011;16482;51.046;4.498;2022-10-28T04:22:15;8.00;;;4.45;;
29538;SDS011;16482;51.046;4.498;2022-10-28T04:24:40;7.28;;;4.85;;
29538;SDS011;16482;51.046;4.498;2022-10-28T04:27:06;6.40;;;4.70;;
29538;SDS011;16482;51.046;4.498;2022-10-28T04:29:32;8.55;;;4.60;;
29538;SDS011;16482;51.046;4.498;2022-10-28T04:31:58;6.50;;;4.35;;
29538;SDS011;16482;51.046;4.498;2022-10-28T04:34:24;6.47;;;4.50;;
29538;SDS011;16482;51.046;4.498;2022-10-28T04:36:50;6.63;;;4.55;;
29538;SDS011;16482;51.046;4.498;2022-10-28T04:39:16;7.78;;;4.63;;
29538;SDS011;16482;51.046;4.498;2022-10-28T04:41:42;8.90;;;5.05;;
29538;SDS011;16482;51.046;4.498;2022-10-28T04:44:08;7.55;;;5.07;;
29538;SDS011;16482;51.046;4.498;2022-10-28T04:46:34;7.78;;;5.03;;
29538;SDS011;16482;51.046;4.498;2022-10-28T04:48:59;5.78;;;4.20;;
29538;SDS011;16482;51.046;4.498;2022-10-28T04:51:25;6.25;;;4.32;;
29538;SDS011;16482;51.046;4.498;2022-10-28T04:53:51;7.75;;;4.90;;
29538;SDS011;16482;51.046;4.498;2022-10-28T04:56:17;6.57;;;5.00;;
29538;SDS011;16482;51.046;4.498;2022-10-28T04:58:43;6.53;;;4.88;;
29538;SDS011;16482;51.046;4.498;2022-10-28T05:01:09;6.75;;;5.10;;
29538;SDS011;16482;51.046;4.498;2022-10-28T05:03:35;7.80;;;4.75;;
29538;SDS011;16482;51.046;4.498;2022-10-28T05:06:01;11.07;;;4.43;;
29538;SDS011;16482;51.046;4.498;2022-10-28T05:08:27;9.10;;;5.30;;
29538;SDS011;16482;51.046;4.498;2022-10-28T05:10:53;7.85;;;4.30;;
29538;SDS011;16482;51.046;4.498;2022-10-28T05:13:19;9.07;;;4.70;;
29538;SDS011;16482;51.046;4.498;2022-10-28T05:15:48;7.38;;;4.50;;
29538;SDS011;16482;51.046;4.498;2022-10-28T05:18:14;7.22;;;4.72;;
29538;SDS011;16482;51.046;4.498;2022-10-28T05:20:40;8.27;;;4.97;;
29538;SDS011;16482;51.046;4.498;2022-10-28T05:23:07;7.03;;;4.53;;
29538;SDS011;16482;51.046;4.498;2022-10-28T05:25:34;9.85;;;5.30;;
29538;SDS011;16482;51.046;4.498;2022-10-28T05:28:00;10.57;;;5.15;;
29538;SDS011;16482;51.046;4.498;2022-10-28T05:30:26;7.10;;;4.28;;
29538;SDS011;16482;51.046;4.498;2022-10-28T05:33:01;8.13;;;5.00;;
29538;SDS011;16482;51.046;4.498;2022-10-28T05:35:28;8.80;;;4.78;;
29538;SDS011;16482;51.046;4.498;2022-10-28T05:37:55;8.82;;;4.57;;
29538;SDS011;16482;51.046;4.498;2022-10-28T05:40:21;6.88;;;4.65;;
29538;SDS011;16482;51.046;4.498;2022-10-28T05:42:47;7.90;;;5.15;;
29538;SDS011;16482;51.046;4.498;2022-10-28T05:45:13;7.93;;;5.47;;
29538;SDS011;16482;51.046;4.498;2022-10-28T05:47:45;7.15;;;5.60;;
29538;SDS011;16482;51.046;4.498;2022-10-28T05:50:13;8.02;;;5.45;;
29538;SDS011;16482;51.046;4.498;2022-10-28T05:52:51;7.13;;;5.30;;
29538;SDS011;16482;51.046;4.498;2022-10-28T05:55:18;10.13;;;5.47;;
29538;SDS011;16482;51.046;4.498;2022-10-28T05:57:46;6.90;;;5.30;;
29538;SDS011;16482;51.046;4.498;2022-10-28T06:00:13;10.13;;;5.53;;
29538;SDS011;16482;51.046;4.498;2022-10-28T06:02:40;7.32;;;5.25;;
29538;SDS011;16482;51.046;4.498;2022-10-28T06:05:06;7.22;;;5.30;;
29538;SDS011;16482;51.046;4.498;2022-10-28T06:07:36;9.32;;;5.05;;
29538;SDS011;16482;51.046;4.498;2022-10-28T06:10:03;7.43;;;5.20;;
29538;SDS011;16482;51.046;4.498;2022-10-28T06:12:29;7.45;;;5.32;;
29538;SDS011;16482;51.046;4.498;2022-10-28T06:14:55;7.28;;;5.00;;
29538;SDS011;16482;51.046;4.498;2022-10-28T06:17:22;7.72;;;5.40;;
29538;SDS011;16482;51.046;4.498;2022-10-28T06:19:48;7.88;;;5.00;;
29538;SDS011;16482;51.046;4.498;2022-10-28T06:22:13;6.40;;;4.85;;
29538;SDS011;16482;51.046;4.498;2022-10-28T06:24:39;11.40;;;5.22;;
29538;SDS011;16482;51.046;4.498;2022-10-28T06:27:05;8.30;;;4.95;;
29538;SDS011;16482;51.046;4.498;2022-10-28T06:29:31;7.15;;;5.38;;
29538;SDS011;16482;51.046;4.498;2022-10-28T06:31:58;9.75;;;6.00;;
29538;SDS011;16482;51.046;4.498;2022-10-28T06:34:24;7.85;;;5.88;;
29538;SDS011;16482;51.046;4.498;2022-10-28T06:36:49;7.43;;;5.72;;
29538;SDS011;16482;51.046;4.498;2022-10-28T06:39:15;7.72;;;5.75;;
29538;SDS011;16482;51.046;4.498;2022-10-28T06:41:41;10.35;;;5.93;;
29538;SDS011;16482;51.046;4.498;2022-10-28T06:44:07;7.45;;;5.18;;
29538;SDS011;16482;51.046;4.498;2022-10-28T06:46:33;11.10;;;5.97;;
29538;SDS011;16482;51.046;4.498;2022-10-28T06:48:59;7.35;;;5.28;;
29538;SDS011;16482;51.046;4.498;2022-10-28T06:51:29;10.45;;;5.60;;
29538;SDS011;16482;51.046;4.498;2022-10-28T06:53:55;6.80;;;5.18;;
29538;SDS011;16482;51.046;4.498;2022-10-28T06:56:22;9.60;;;5.25;;
29538;SDS011;16482;51.046;4.498;2022-10-28T06:58:49;8.18;;;5.60;;
29538;SDS011;16482;51.046;4.498;2022-10-28T07:01:15;7.03;;;5.30;;
29538;SDS011;16482;51.046;4.498;2022-10-28T07:03:42;9.23;;;5.88;;
29538;SDS011;16482;51.046;4.498;2022-10-28T07:06:08;7.65;;;5.70;;
29538;SDS011;16482;51.046;4.498;2022-10-28T07:08:34;8.88;;;5.70;;
29538;SDS011;16482;51.046;4.498;2022-10-28T07:11:00;8.30;;;5.95;;
29538;SDS011;16482;51.046;4.498;2022-10-28T07:13:26;9.07;;;5.40;;
29538;SDS011;16482;51.046;4.498;2022-10-28T07:15:56;9.27;;;5.68;;
29538;SDS011;16482;51.046;4.498;2022-10-28T07:18:26;7.28;;;5.10;;
29538;SDS011;16482;51.046;4.498;2022-10-28T07:20:58;9.38;;;6.55;;
29538;SDS011;16482;51.046;4.498;2022-10-28T07:23:27;10.48;;;5.95;;
29538;SDS011;16482;51.046;4.498;2022-10-28T07:25:56;6.70;;;5.50;;
29538;SDS011;16482;51.046;4.498;2022-10-28T07:28:23;11.50;;;6.22;;
29538;SDS011;16482;51.046;4.498;2022-10-28T07:30:50;10.43;;;5.72;;
29538;SDS011;16482;51.046;4.498;2022-10-28T07:33:16;7.95;;;5.47;;
29538;SDS011;16482;51.046;4.498;2022-10-28T07:35:42;10.40;;;6.05;;
29538;SDS011;16482;51.046;4.498;2022-10-28T07:38:08;11.73;;;5.85;;
29538;SDS011;16482;51.046;4.498;2022-10-28T07:40:34;8.50;;;5.55;;
29538;SDS011;16482;51.046;4.498;2022-10-28T07:43:00;8.23;;;5.68;;
29538;SDS011;16482;51.046;4.498;2022-10-28T07:45:26;9.38;;;5.90;;
29538;SDS011;16482;51.046;4.498;2022-10-28T07:47:52;8.93;;;5.93;;
29538;SDS011;16482;51.046;4.498;2022-10-28T07:50:18;8.55;;;6.00;;
29538;SDS011;16482;51.046;4.498;2022-10-28T07:52:44;9.15;;;5.40;;
29538;SDS011;16482;51.046;4.498;2022-10-28T07:55:10;8.32;;;6.03;;
29538;SDS011;16482;51.046;4.498;2022-10-28T07:57:36;7.13;;;5.63;;
29538;SDS011;16482;51.046;4.498;2022-10-28T08:00:03;10.63;;;6.00;;
29538;SDS011;16482;51.046;4.498;2022-10-28T08:02:30;9.18;;;6.07;;
29538;SDS011;16482;51.046;4.498;2022-10-28T08:04:56;9.85;;;5.63;;
29538;SDS011;16482;51.046;4.498;2022-10-28T08:07:24;9.15;;;5.72;;
29538;SDS011;16482;51.046;4.498;2022-10-28T08:09:51;10.40;;;6.22;;
29538;SDS011;16482;51.046;4.498;2022-10-28T08:12:17;8.15;;;6.10;;
29538;SDS011;16482;51.046;4.498;2022-10-28T08:14:43;8.70;;;5.90;;
29538;SDS011;16482;51.046;4.498;2022-10-28T08:17:09;7.78;;;5.88;;
29538;SDS011;16482;51.046;4.498;2022-10-28T08:19:35;10.57;;;6.25;;
29538;SDS011;16482;51.046;4.498;2022-10-28T08:22:01;8.68;;;6.22;;
29538;SDS011;16482;51.046;4.498;2022-10-28T08:24:27;10.60;;;6.07;;
29538;SDS011;16482;51.046;4.498;2022-10-28T08:26:53;9.77;;;5.97;;
29538;SDS011;16482;51.046;4.498;2022-10-28T08:29:21;9.57;;;6.20;;
29538;SDS011;16482;51.046;4.498;2022-10-28T08:31:47;8.60;;;6.03;;
29538;SDS011;16482;51.046;4.498;2022-10-28T08:34:13;8.05;;;6.00;;
29538;SDS011;16482;51.046;4.498;2022-10-28T08:36:38;9.05;;;6.13;;
29538;SDS011;16482;51.046;4.498;2022-10-28T08:39:04;9.13;;;6.00;;
29538;SDS011;16482;51.046;4.498;2022-10-28T08:49:11;7.80;;;5.60;;
29538;SDS011;16482;51.046;4.498;2022-10-28T08:51:47;10.30;;;6.70;;
29538;SDS011;16482;51.046;4.498;2022-10-28T08:54:23;8.88;;;6.75;;
29538;SDS011;16482;51.046;4.498;2022-10-28T08:57:04;8.63;;;6.10;;
29538;SDS011;16482;51.046;4.498;2022-10-28T08:59:37;8.82;;;6.20;;
29538;SDS011;16482;51.046;4.498;2022-10-28T09:02:25;10.00;;;5.88;;
29538;SDS011;16482;51.046;4.498;2022-10-28T09:07:30;8.85;;;6.72;;
29538;SDS011;16482;51.046;4.498;2022-10-28T09:09:58;8.32;;;5.75;;
29538;SDS011;16482;51.046;4.498;2022-10-28T09:12:30;8.35;;;6.20;;
29538;SDS011;16482;51.046;4.498;2022-10-28T09:31:17;9.63;;;6.32;;
29538;SDS011;16482;51.046;4.498;2022-10-28T09:39:43;10.30;;;6.75;;
29538;SDS011;16482;51.046;4.498;2022-10-28T09:42:19;8.95;;;6.03;;
29538;SDS011;16482;51.046;4.498;2022-10-28T09:44:54;9.10;;;6.60;;
29538;SDS011;16482;51.046;4.498;2022-10-28T09:47:26;10.68;;;6.07;;
29538;SDS011;16482;51.046;4.498;2022-10-28T09:50:00;8.68;;;6.53;;
29538;SDS011;16482;51.046;4.498;2022-10-28T09:55:46;9.23;;;6.30;;
29538;SDS011;16482;51.046;4.498;2022-10-28T09:58:14;10.23;;;5.85;;
29538;SDS011;16482;51.046;4.498;2022-10-28T10:00:41;10.02;;;6.55;;
29538;SDS011;16482;51.046;4.498;2022-10-28T10:03:07;11.88;;;6.03;;
29538;SDS011;16482;51.046;4.498;2022-10-28T10:05:38;11.82;;;6.88;;
29538;SDS011;16482;51.046;4.498;2022-10-28T10:08:09;8.95;;;5.95;;
29538;SDS011;16482;51.046;4.498;2022-10-28T10:10:43;9.60;;;6.55;;
29538;SDS011;16482;51.046;4.498;2022-10-28T10:13:13;11.40;;;6.13;;
29538;SDS011;16482;51.046;4.498;2022-10-28T10:15:48;10.65;;;6.65;;
29538;SDS011;16482;51.046;4.498;2022-10-28T10:18:26;8.35;;;5.95;;
29538;SDS011;16482;51.046;4.498;2022-10-28T10:20:57;11.50;;;6.57;;
29538;SDS011;16482;51.046;4.498;2022-10-28T10:23:33;10.25;;;6.20;;
29538;SDS011;16482;51.046;4.498;2022-10-28T10:28:31;8.98;;;6.32;;
29538;SDS011;16482;51.046;4.498;2022-10-28T10:31:01;10.95;;;6.90;;
29538;SDS011;16482;51.046;4.498;2022-10-28T10:33:33;8.98;;;6.68;;
29538;SDS011;16482;51.046;4.498;2022-10-28T10:36:02;10.45;;;6.60;;
29538;SDS011;16482;51.046;4.498;2022-10-28T10:38:29;11.65;;;6.65;;
29538;SDS011;16482;51.046;4.498;2022-10-28T10:40:56;9.60;;;6.38;;
29538;SDS011;16482;51.046;4.498;2022-10-28T10:43:23;11.05;;;6.70;;
29538;SDS011;16482;51.046;4.498;2022-10-28T10:46:13;10.48;;;6.80;;
29538;SDS011;16482;51.046;4.498;2022-10-28T10:48:40;9.80;;;6.40;;
29538;SDS011;16482;51.046;4.498;2022-10-28T10:53:49;9.80;;;6.38;;
29538;SDS011;16482;51.046;4.498;2022-10-28T10:56:22;9.25;;;6.07;;
29538;SDS011;16482;51.046;4.498;2022-10-28T10:58:51;8.32;;;6.05;;
29538;SDS011;16482;51.046;4.498;2022-10-28T11:01:20;10.30;;;6.78;;
29538;SDS011;16482;51.046;4.498;2022-10-28T11:03:50;10.07;;;6.50;;
29538;SDS011;16482;51.046;4.498;2022-10-28T11:06:28;11.13;;;6.75;;
29538;SDS011;16482;51.046;4.498;2022-10-28T11:08:57;8.73;;;6.10;;
29538;SDS011;16482;51.046;4.498;2022-10-28T11:11:33;13.18;;;6.95;;
29538;SDS011;16482;51.046;4.498;2022-10-28T11:14:17;10.70;;;6.50;;
29538;SDS011;16482;51.046;4.498;2022-10-28T11:22:00;11.52;;;5.97;;
29538;SDS011;16482;51.046;4.498;2022-10-28T11:30:13;11.80;;;6.50;;
29538;SDS011;16482;51.046;4.498;2022-10-28T11:35:29;11.30;;;6.60;;
29538;SDS011;16482;51.046;4.498;2022-10-28T11:38:25;14.93;;;6.53;;
29538;SDS011;16482;51.046;4.498;2022-10-28T11:43:45;8.95;;;6.15;;
29538;SDS011;16482;51.046;4.498;2022-10-28T11:46:19;11.45;;;6.53;;
29538;SDS011;16482;51.046;4.498;2022-10-28T11:49:37;10.55;;;6.38;;
29538;SDS011;16482;51.046;4.498;2022-10-28T11:55:17;11.77;;;6.38;;
29538;SDS011;16482;51.046;4.498;2022-10-28T11:57:57;9.30;;;6.60;;
29538;SDS011;16482;51.046;4.498;2022-10-28T12:00:45;10.18;;;6.22;;
29538;SDS011;16482;51.046;4.498;2022-10-28T12:15:09;10.95;;;6.82;;
29538;SDS011;16482;51.046;4.498;2022-10-28T12:20:51;12.52;;;6.55;;
29538;SDS011;16482;51.046;4.498;2022-10-28T12:23:28;11.27;;;6.63;;
29538;SDS011;16482;51.046;4.498;2022-10-28T12:25:58;11.18;;;6.95;;
29538;SDS011;16482;51.046;4.498;2022-10-28T12:28:42;9.45;;;5.93;;
29538;SDS011;16482;51.046;4.498;2022-10-28T12:31:18;11.27;;;6.40;;
29538;SDS011;16482;51.046;4.498;2022-10-28T12:33:57;8.85;;;6.45;;
29538;SDS011;16482;51.046;4.498;2022-10-28T12:38:59;11.95;;;6.55;;
29538;SDS011;16482;51.046;4.498;2022-10-28T12:44:37;10.07;;;6.13;;
29538;SDS011;16482;51.046;4.498;2022-10-28T12:47:06;11.93;;;6.30;;
29538;SDS011;16482;51.046;4.498;2022-10-28T12:52:38;8.95;;;6.13;;
29538;SDS011;16482;51.046;4.498;2022-10-28T12:57:38;6.88;;;5.65;;
29538;SDS011;16482;51.046;4.498;2022-10-28T13:02:42;9.95;;;6.50;;
29538;SDS011;16482;51.046;4.498;2022-10-28T13:05:17;10.90;;;6.00;;
29538;SDS011;16482;51.046;4.498;2022-10-28T13:10:40;9.05;;;6.38;;
29538;SDS011;16482;51.046;4.498;2022-10-28T13:13:15;10.50;;;5.78;;
29538;SDS011;16482;51.046;4.498;2022-10-28T13:16:11;9.15;;;6.38;;
29538;SDS011;16482;51.046;4.498;2022-10-28T13:19:23;11.02;;;6.05;;
29538;SDS011;16482;51.046;4.498;2022-10-28T13:27:00;10.95;;;6.40;;
29538;SDS011;16482;51.046;4.498;2022-10-28T13:29:29;10.95;;;6.32;;
29538;SDS011;16482;51.046;4.498;2022-10-28T13:31:57;11.07;;;6.38;;
29538;SDS011;16482;51.046;4.498;2022-10-28T13:34:33;9.50;;;5.45;;
29538;SDS011;16482;51.046;4.498;2022-10-28T13:37:02;7.85;;;5.65;;
29538;SDS011;16482;51.046;4.498;2022-10-28T13:44:51;8.50;;;5.45;;
29538;SDS011;16482;51.046;4.498;2022-10-28T13:52:30;10.52;;;6.10;;
29538;SDS011;16482;51.046;4.498;2022-10-28T13:54:57;10.95;;;5.75;;
29538;SDS011;16482;51.046;4.498;2022-10-28T13:57:36;8.23;;;5.38;;
29538;SDS011;16482;51.046;4.498;2022-10-28T14:03:16;8.20;;;5.85;;
29538;SDS011;16482;51.046;4.498;2022-10-28T14:08:14;10.27;;;6.38;;
29538;SDS011;16482;51.046;4.498;2022-10-28T14:10:53;11.35;;;6.60;;
29538;SDS011;16482;51.046;4.498;2022-10-28T14:13:23;10.02;;;6.38;;
29538;SDS011;16482;51.046;4.498;2022-10-28T14:15:49;10.05;;;5.75;;
29538;SDS011;16482;51.046;4.498;2022-10-28T14:18:56;9.15;;;5.65;;
29538;SDS011;16482;51.046;4.498;2022-10-28T14:21:45;10.27;;;6.30;;
29538;SDS011;16482;51.046;4.498;2022-10-28T14:24:31;9.05;;;5.95;;
29538;SDS011;16482;51.046;4.498;2022-10-28T14:29:30;8.65;;;5.82;;
29538;SDS011;16482;51.046;4.498;2022-10-28T14:34:58;11.30;;;6.50;;
29538;SDS011;16482;51.046;4.498;2022-10-28T14:37:30;10.02;;;5.93;;
29538;SDS011;16482;51.046;4.498;2022-10-28T14:45:50;10.27;;;5.80;;
29538;SDS011;16482;51.046;4.498;2022-10-28T14:48:52;8.52;;;5.60;;
29538;SDS011;16482;51.046;4.498;2022-10-28T14:51:24;9.77;;;5.90;;
29538;SDS011;16482;51.046;4.498;2022-10-28T14:53:58;11.60;;;5.85;;
29538;SDS011;16482;51.046;4.498;2022-10-28T14:56:26;10.20;;;6.20;;
29538;SDS011;16482;51.046;4.498;2022-10-28T14:58:56;9.65;;;6.30;;
29538;SDS011;16482;51.046;4.498;2022-10-28T15:01:25;10.68;;;6.10;;
29538;SDS011;16482;51.046;4.498;2022-10-28T15:04:00;13.55;;;6.20;;
29538;SDS011;16482;51.046;4.498;2022-10-28T15:06:35;9.90;;;5.78;;
29538;SDS011;16482;51.046;4.498;2022-10-28T15:09:20;12.82;;;6.32;;
29538;SDS011;16482;51.046;4.498;2022-10-28T15:12:00;8.45;;;5.60;;
29538;SDS011;16482;51.046;4.498;2022-10-28T15:14:35;8.90;;;5.93;;
29538;SDS011;16482;51.046;4.498;2022-10-28T15:22:17;10.35;;;6.30;;
29538;SDS011;16482;51.046;4.498;2022-10-28T15:24:51;11.15;;;6.05;;
29538;SDS011;16482;51.046;4.498;2022-10-28T15:27:23;11.67;;;5.83;;
29538;SDS011;16482;51.046;4.498;2022-10-28T15:29:51;10.52;;;5.78;;
29538;SDS011;16482;51.046;4.498;2022-10-28T15:34:46;9.15;;;5.40;;
29538;SDS011;16482;51.046;4.498;2022-10-28T15:37:19;11.00;;;5.95;;
29538;SDS011;16482;51.046;4.498;2022-10-28T15:39:48;16.67;;;6.22;;
29538;SDS011;16482;51.046;4.498;2022-10-28T15:45:00;16.98;;;6.55;;
29538;SDS011;16482;51.046;4.498;2022-10-28T15:47:28;13.23;;;6.03;;
29538;SDS011;16482;51.046;4.498;2022-10-28T15:52:44;10.57;;;6.13;;
29538;SDS011;16482;51.046;4.498;2022-10-28T15:55:32;9.20;;;5.88;;
29538;SDS011;16482;51.046;4.498;2022-10-28T15:57:59;13.68;;;6.20;;
29538;SDS011;16482;51.046;4.498;2022-10-28T16:03:00;10.02;;;5.82;;
29538;SDS011;16482;51.046;4.498;2022-10-28T16:10:51;11.65;;;5.40;;
29538;SDS011;16482;51.046;4.498;2022-10-28T16:16:46;15.52;;;5.68;;
29538;SDS011;16482;51.046;4.498;2022-10-28T16:19:06;14.38;;;6.38;;
29538;SDS011;16482;51.046;4.498;2022-10-28T16:21:34;9.35;;;5.45;;
29538;SDS011;16482;51.046;4.498;2022-10-28T16:24:02;11.32;;;4.93;;
29538;SDS011;16482;51.046;4.498;2022-10-28T16:26:29;10.88;;;5.03;;
29538;SDS011;16482;51.046;4.498;2022-10-28T16:28:57;7.28;;;4.70;;
29538;SDS011;16482;51.046;4.498;2022-10-28T16:31:23;10.13;;;4.65;;
29538;SDS011;16482;51.046;4.498;2022-10-28T16:33:52;7.30;;;4.95;;
29538;SDS011;16482;51.046;4.498;2022-10-28T16:36:18;9.82;;;5.15;;
29538;SDS011;16482;51.046;4.498;2022-10-28T16:38:44;6.82;;;4.75;;
29538;SDS011;16482;51.046;4.498;2022-10-28T16:41:13;7.05;;;4.82;;
29538;SDS011;16482;51.046;4.498;2022-10-28T16:43:41;8.70;;;5.00;;
29538;SDS011;16482;51.046;4.498;2022-10-28T16:46:08;8.75;;;4.88;;
29538;SDS011;16482;51.046;4.498;2022-10-28T16:48:35;11.93;;;4.93;;
29538;SDS011;16482;51.046;4.498;2022-10-28T16:51:02;8.10;;;4.40;;
29538;SDS011;16482;51.046;4.498;2022-10-28T16:53:49;7.22;;;4.60;;
29538;SDS011;16482;51.046;4.498;2022-10-28T16:56:15;7.70;;;5.15;;
29538;SDS011;16482;51.046;4.498;2022-10-28T16:58:41;8.20;;;4.47;;
29538;SDS011;16482;51.046;4.498;2022-10-28T17:01:08;8.82;;;4.78;;
29538;SDS011;16482;51.046;4.498;2022-10-28T17:03:34;7.03;;;4.40;;
29538;SDS011;16482;51.046;4.498;2022-10-28T17:06:00;7.28;;;4.32;;
29538;SDS011;16482;51.046;4.498;2022-10-28T17:08:26;6.88;;;4.35;;
29538;SDS011;16482;51.046;4.498;2022-10-28T17:10:52;7.95;;;4.68;;
29538;SDS011;16482;51.046;4.498;2022-10-28T17:13:18;8.43;;;4.90;;
29538;SDS011;16482;51.046;4.498;2022-10-28T17:15:43;8.30;;;4.72;;
29538;SDS011;16482;51.046;4.498;2022-10-28T17:18:10;8.43;;;4.47;;
29538;SDS011;16482;51.046;4.498;2022-10-28T17:20:37;7.93;;;4.63;;
29538;SDS011;16482;51.046;4.498;2022-10-28T17:23:03;7.47;;;4.47;;
29538;SDS011;16482;51.046;4.498;2022-10-28T17:25:30;7.68;;;4.80;;
29538;SDS011;16482;51.046;4.498;2022-10-28T17:27:56;7.60;;;4.68;;
29538;SDS011;16482;51.046;4.498;2022-10-28T17:30:21;7.30;;;4.70;;
29538;SDS011;16482;51.046;4.498;2022-10-28T17:32:48;7.32;;;4.85;;
29538;SDS011;16482;51.046;4.498;2022-10-28T17:35:16;7.25;;;5.03;;
29538;SDS011;16482;51.046;4.498;2022-10-28T17:37:43;10.02;;;5.00;;
29538;SDS011;16482;51.046;4.498;2022-10-28T17:40:11;7.40;;;4.72;;
29538;SDS011;16482;51.046;4.498;2022-10-28T17:42:37;11.00;;;4.65;;
29538;SDS011;16482;51.046;4.498;2022-10-28T17:45:04;7.60;;;4.88;;
29538;SDS011;16482;51.046;4.498;2022-10-28T17:47:31;10.48;;;5.07;;
29538;SDS011;16482;51.046;4.498;2022-10-28T17:49:58;9.63;;;5.45;;
29538;SDS011;16482;51.046;4.498;2022-10-28T17:52:24;8.80;;;5.38;;
29538;SDS011;16482;51.046;4.498;2022-10-28T17:54:51;7.93;;;4.88;;
29538;SDS011;16482;51.046;4.498;2022-10-28T17:57:17;10.60;;;5.43;;
29538;SDS011;16482;51.046;4.498;2022-10-28T17:59:42;7.85;;;5.38;;
29538;SDS011;16482;51.046;4.498;2022-10-28T18:02:12;8.98;;;5.30;;
29538;SDS011;16482;51.046;4.498;2022-10-28T18:04:38;8.80;;;5.55;;
29538;SDS011;16482;51.046;4.498;2022-10-28T18:07:05;8.07;;;4.80;;
29538;SDS011;16482;51.046;4.498;2022-10-28T18:09:31;8.40;;;5.05;;